Time;durP1;ratioP1;P1;durP2;ratioP2;P2;SDS_P1;SDS_P2;PMS_P1;PMS_P2;Temp;Humidity;BMP_temperature;BMP_pressure;BME280_temperature;BME280_humidity;BME280_pressure;Samples;Min_cycle;Max_cycle;Signal;HPM_P1;HPM_P2
2022/09/09 00:02:19;;;;;;;34.63;6.78;;;15.30;99.90;;;;;;5053127;28;19927;-80
2022/09/09 00:05:02;;;;;;;45.25;6.45;;;15.30;99.90;;;;;;5053295;28;20053;-80
2022/09/09 00:07:47;;;;;;;31.52;5.97;;;15.30;99.90;;;;;;5052401;28;20053;-80
2022/09/09 00:10:40;;;;;;;31.30;5.80;;;15.30;99.90;;;;;;5036802;28;20060;-80
2022/09/09 00:13:39;;;;;;;34.95;5.95;;;15.30;99.90;;;;;;5054706;28;20045;-80
2022/09/09 00:16:24;;;;;;;27.75;5.78;;;15.20;99.90;;;;;;5056013;28;20051;-79
2022/09/09 00:19:26;;;;;;;34.97;6.30;;;15.20;99.90;;;;;;5057971;28;20044;-81
2022/09/09 00:22:14;;;;;;;36.85;6.78;;;15.10;99.90;;;;;;5056099;28;20379;-80
2022/09/09 00:24:44;;;;;;;;;;;15.10;99.90;;;;;;5057310;28;20049;-78
2022/09/09 00:27:29;;;;;;;30.90;6.60;;;14.90;99.90;;;;;;5056701;28;19920;-79
2022/09/09 00:30:03;;;;;;;30.38;7.80;;;15.00;99.90;;;;;;5057217;28;20048;-81
2022/09/09 00:32:35;;;;;;;38.83;7.60;;;15.00;99.90;;;;;;5057885;28;20503;-80
2022/09/09 00:35:15;;;;;;;41.97;8.07;;;15.00;99.90;;;;;;5056860;28;20040;-81
2022/09/09 00:37:47;;;;;;;37.50;7.88;;;15.00;99.90;;;;;;5057299;28;20045;-82
2022/09/09 00:40:34;;;;;;;33.38;7.22;;;15.00;99.90;;;;;;5056082;28;20367;-79
2022/09/09 00:43:37;;;;;;;33.38;7.88;;;15.10;99.90;;;;;;5057410;28;20045;-80
2022/09/09 00:46:32;;;;;;;34.13;7.78;;;15.10;99.90;;;;;;5040348;28;20059;-80
2022/09/09 00:49:15;;;;;;;43.72;8.45;;;15.00;99.90;;;;;;5055624;28;20037;-79
2022/09/09 00:52:18;;;;;;;45.03;7.95;;;15.00;99.90;;;;;;5056550;28;20045;-81
2022/09/09 00:55:00;;;;;;;35.85;7.70;;;15.00;99.90;;;;;;5055426;28;20053;-79
2022/09/09 00:57:36;;;;;;;39.95;7.50;;;14.90;99.90;;;;;;5057428;28;20049;-80
2022/09/09 01:00:25;;;;;;;34.28;8.38;;;14.80;99.90;;;;;;5055428;28;20506;-78
2022/09/09 01:03:17;;;;;;;43.10;9.48;;;14.80;99.90;;;;;;5057520;28;20063;-79
2022/09/09 01:05:59;;;;;;;38.05;9.27;;;14.70;99.90;;;;;;5039655;28;20063;-79
2022/09/09 01:08:51;;;;;;;38.42;10.25;;;14.70;99.90;;;;;;5055941;28;20050;-80
2022/09/09 01:11:43;;;;;;;38.72;11.25;;;14.70;99.90;;;;;;5023842;28;20056;-81
2022/09/09 01:14:33;;;;;;;48.45;11.55;;;14.70;99.90;;;;;;5038391;28;20052;-77
2022/09/09 01:17:05;;;;;;;40.17;10.77;;;14.70;99.90;;;;;;4998050;28;20061;-79
2022/09/09 01:19:45;;;;;;;41.15;10.48;;;14.80;99.90;;;;;;5056480;28;20052;-80
2022/09/09 01:22:24;;;;;;;35.65;9.32;;;14.80;99.90;;;;;;5054874;28;20041;-79
2022/09/09 01:25:17;;;;;;;43.53;10.85;;;14.80;99.90;;;;;;5056783;28;20371;-77
2022/09/09 01:28:02;;;;;;;37.42;9.02;;;14.90;99.90;;;;;;5039932;28;20063;-79
2022/09/09 01:30:31;;;;;;;43.65;10.88;;;14.90;99.90;;;;;;5055953;28;20048;-80
2022/09/09 01:33:02;;;;;;;37.95;11.25;;;14.90;99.90;;;;;;5039733;28;20040;-81
2022/09/09 01:35:44;;;;;;;39.88;10.77;;;14.90;99.90;;;;;;5054525;28;20041;-80
2022/09/09 01:38:13;;;;;;;40.78;11.27;;;14.90;99.90;;;;;;5039327;28;20037;-78
2022/09/09 01:40:41;;;;;;;43.17;10.55;;;15.00;99.90;;;;;;5054791;28;20040;-79
2022/09/09 01:43:09;;;;;;;37.78;10.38;;;15.00;99.90;;;;;;5055747;28;20041;-79
2022/09/09 01:45:39;;;;;;;53.45;10.73;;;15.00;99.90;;;;;;5039454;28;20056;-79
2022/09/09 01:48:07;;;;;;;38.42;9.68;;;15.00;99.90;;;;;;5075127;28;20048;-80
2022/09/09 01:50:44;;;;;;;27.45;8.95;;;15.00;99.90;;;;;;5076493;28;20047;-80
2022/09/09 01:53:13;;;;;;;;;;;15.00;99.90;;;;;;5059460;28;20064;-78
2022/09/09 01:55:49;;;;;;;37.13;10.75;;;15.10;99.90;;;;;;5057779;28;19920;-79
2022/09/09 01:58:50;;;;;;;41.08;11.48;;;15.10;99.90;;;;;;5042334;28;20371;-79
2022/09/09 02:01:41;;;;;;;37.65;11.10;;;15.10;99.90;;;;;;5057819;28;20052;-80
2022/09/09 02:04:34;;;;;;;35.17;10.07;;;15.10;99.90;;;;;;5058814;28;20462;-79
2022/09/09 02:07:36;;;;;;;35.80;10.07;;;15.20;99.90;;;;;;5057239;28;20037;-79
2022/09/09 02:10:28;;;;;;;45.70;13.10;;;15.20;99.90;;;;;;5058683;28;20150;-79
2022/09/09 02:13:19;;;;;;;33.75;8.73;;;15.20;99.90;;;;;;5058322;28;20044;-80
2022/09/09 02:16:07;;;;;;;41.03;9.95;;;15.20;99.90;;;;;;5059150;28;20371;-78
2022/09/09 02:18:51;;;;;;;35.28;9.93;;;15.30;99.90;;;;;;5058492;28;20045;-80
2022/09/09 02:21:25;;;;;;;30.73;7.60;;;15.30;99.90;;;;;;5057167;28;20044;-80
2022/09/09 02:23:53;;;;;;;36.00;7.10;;;15.30;99.90;;;;;;5058128;28;20036;-79
2022/09/09 02:26:23;;;;;;;32.63;7.88;;;15.30;99.90;;;;;;5057937;28;20127;-79
2022/09/09 02:28:59;;;;;;;29.65;6.78;;;15.30;99.90;;;;;;5057140;28;20051;-80
2022/09/09 02:31:27;;;;;;;36.03;6.75;;;15.30;99.90;;;;;;5041740;28;20048;-80
2022/09/09 02:34:02;;;;;;;30.90;6.45;;;15.30;99.90;;;;;;5057076;28;20055;-81
2022/09/09 02:36:33;;;;;;;27.33;6.45;;;15.30;99.90;;;;;;5057909;28;20045;-84
2022/09/09 02:39:02;;;;;;;38.67;6.85;;;15.20;99.90;;;;;;5057656;28;20032;-81
2022/09/09 02:41:37;;;;;;;33.60;6.57;;;15.20;99.90;;;;;;5040363;28;20044;-83
2022/09/09 02:44:12;;;;;;;38.42;8.02;;;15.20;99.90;;;;;;5058099;28;20363;-84
2022/09/09 02:46:59;;;;;;;38.70;6.55;;;15.20;99.90;;;;;;5057226;28;20056;-83
2022/09/09 02:49:29;;;;;;;41.25;8.27;;;15.20;99.90;;;;;;5057755;28;20063;-83
2022/09/09 02:52:02;;;;;;;41.42;8.00;;;15.20;99.90;;;;;;5041285;28;20056;-82
2022/09/09 02:54:32;;;;;;;26.55;6.80;;;15.20;99.90;;;;;;5056659;28;20044;-82
2022/09/09 02:57:20;;;;;;;35.70;7.47;;;15.20;99.90;;;;;;5025995;28;20048;-82
2022/09/09 02:59:52;;;;;;;35.33;7.50;;;15.30;99.90;;;;;;5058084;28;20041;-80
2022/09/09 03:02:20;;;;;;;35.28;8.20;;;15.30;99.90;;;;;;5073866;28;20040;-82
2022/09/09 03:04:53;;;;;;;39.95;8.77;;;15.30;99.90;;;;;;5040924;28;20059;-80
2022/09/09 03:07:21;;;;;;;35.65;9.07;;;15.20;99.90;;;;;;5056360;28;20036;-80
2022/09/09 03:09:52;;;;;;;45.13;9.00;;;15.30;99.90;;;;;;5041312;28;20041;-80
2022/09/09 03:12:20;;;;;;;44.95;10.05;;;15.20;99.90;;;;;;5057253;28;20455;-80
2022/09/09 03:14:48;;;;;;;48.13;9.68;;;15.30;99.90;;;;;;5056455;28;20057;-82
2022/09/09 03:17:16;;;;;;;36.47;8.98;;;15.30;99.90;;;;;;5057290;28;20045;-78
2022/09/09 03:19:52;;;;;;;35.75;9.10;;;15.30;99.90;;;;;;5057593;28;20486;-79
2022/09/09 03:22:21;;;;;;;34.15;9.43;;;15.20;99.90;;;;;;5056051;28;20052;-78
2022/09/09 03:24:48;;;;;;;50.80;9.55;;;15.30;99.90;;;;;;5057176;28;20352;-79
2022/09/09 03:27:17;;;;;;;33.47;8.95;;;15.20;99.90;;;;;;5039284;28;20068;-79
2022/09/09 03:29:46;;;;;;;42.83;9.85;;;15.20;99.90;;;;;;5074749;28;20044;-78
2022/09/09 03:32:22;;;;;;;43.47;9.73;;;15.20;99.90;;;;;;5057129;28;20049;-80
2022/09/09 03:34:49;;;;;;;33.75;10.45;;;15.20;99.90;;;;;;5056170;28;20067;-80
2022/09/09 03:37:19;;;;;;;33.10;9.32;;;15.10;99.90;;;;;;5057205;28;20475;-78
2022/09/09 03:39:49;;;;;;;26.52;8.20;;;15.20;99.90;;;;;;5056976;28;20060;-79
2022/09/09 03:42:18;;;;;;;32.72;8.95;;;15.10;99.90;;;;;;5055681;28;20056;-78
2022/09/09 03:44:50;;;;;;;36.65;8.82;;;15.10;99.90;;;;;;5056976;28;20048;-79
2022/09/09 03:47:24;;;;;;;33.22;9.57;;;15.10;99.90;;;;;;5055757;28;20051;-79
2022/09/09 03:49:56;;;;;;;34.63;9.98;;;15.10;99.90;;;;;;5057642;28;20051;-79
2022/09/09 03:52:24;;;;;;;33.80;9.35;;;15.20;99.90;;;;;;5061491;28;20055;-78
2022/09/09 03:54:53;;;;;;;40.50;9.93;;;15.20;99.90;;;;;;5059944;28;20048;-77
2022/09/09 03:57:21;;;;;;;33.17;9.35;;;15.10;99.90;;;;;;5060986;28;20040;-79
2022/09/09 03:59:49;;;;;;;;;;;15.20;99.90;;;;;;5061336;28;20375;-79
2022/09/09 04:02:17;;;;;;;30.65;8.93;;;15.20;99.90;;;;;;5059998;28;19928;-79
2022/09/09 04:04:44;;;;;;;33.95;8.93;;;15.20;99.90;;;;;;5061242;28;20363;-79
2022/09/09 04:07:12;;;;;;;33.58;10.73;;;15.20;99.90;;;;;;5059705;28;20045;-77
2022/09/09 04:09:40;;;;;;;44.28;10.43;;;15.20;99.90;;;;;;5060775;28;20489;-77
2022/09/09 04:12:08;;;;;;;;;;;15.10;99.90;;;;;;5061146;28;20052;-77
2022/09/09 04:14:36;;;;;;;34.25;9.85;;;15.10;99.90;;;;;;5060029;28;19928;-78
2022/09/09 04:17:06;;;;;;;32.38;10.20;;;15.10;99.90;;;;;;5060630;28;20049;-79
2022/09/09 04:19:34;;;;;;;37.58;11.10;;;15.10;99.90;;;;;;5060687;28;20379;-79
2022/09/09 04:22:05;;;;;;;37.20;10.23;;;15.20;99.90;;;;;;5077280;28;20052;-79
2022/09/09 04:24:33;;;;;;;35.65;11.05;;;15.10;99.90;;;;;;5043711;28;20044;-80
2022/09/09 04:27:01;;;;;;;42.95;11.25;;;15.10;99.90;;;;;;5059709;28;20053;-79
2022/09/09 04:29:31;;;;;;;37.67;10.45;;;15.20;99.90;;;;;;5043670;28;20070;-79
2022/09/09 04:31:58;;;;;;;44.50;11.95;;;15.20;99.90;;;;;;5060391;28;20049;-77
2022/09/09 04:34:26;;;;;;;38.40;10.77;;;15.10;99.90;;;;;;5059568;28;20053;-79
2022/09/09 04:36:55;;;;;;;29.50;11.02;;;15.20;99.90;;;;;;5043686;28;20056;-78
2022/09/09 04:39:22;;;;;;;39.10;11.82;;;15.10;99.90;;;;;;5077619;28;20075;-79
2022/09/09 04:41:51;;;;;;;44.03;12.43;;;15.10;99.90;;;;;;5059195;28;20052;-81
2022/09/09 04:44:19;;;;;;;35.55;12.52;;;15.10;99.90;;;;;;5044040;28;20048;-82
2022/09/09 04:46:47;;;;;;;50.88;12.40;;;15.20;99.90;;;;;;5042077;28;20063;-83
2022/09/09 04:49:14;;;;;;;32.28;12.07;;;15.20;99.90;;;;;;5059988;28;20051;-80
2022/09/09 04:51:43;;;;;;;37.95;12.25;;;15.10;99.90;;;;;;5044011;28;20041;-80
2022/09/09 04:54:11;;;;;;;40.30;12.85;;;15.20;99.90;;;;;;5059383;28;20044;-78
2022/09/09 04:56:43;;;;;;;46.67;13.40;;;15.10;99.90;;;;;;5060063;28;20455;-79
2022/09/09 04:59:11;;;;;;;37.97;12.85;;;15.20;99.90;;;;;;5077427;28;20049;-77
2022/09/09 05:01:46;;;;;;;39.60;12.25;;;15.10;99.90;;;;;;5041526;28;20067;-79
2022/09/09 05:04:15;;;;;;;31.83;11.43;;;15.10;99.90;;;;;;5059869;28;20048;-77
2022/09/09 05:06:43;;;;;;;36.80;11.73;;;15.10;99.90;;;;;;5058620;28;20048;-79
2022/09/09 05:09:12;;;;;;;36.55;11.30;;;15.10;99.90;;;;;;5059869;28;20033;-78
2022/09/09 05:11:40;;;;;;;29.80;11.05;;;15.00;99.90;;;;;;5059583;28;20056;-78
2022/09/09 05:14:14;;;;;;;35.88;12.27;;;15.10;99.90;;;;;;5058527;28;20378;-79
2022/09/09 05:16:44;;;;;;;30.75;11.30;;;15.10;99.90;;;;;;5059365;28;20056;-77
2022/09/09 05:19:12;;;;;;;36.90;11.90;;;15.00;99.90;;;;;;5042758;28;20048;-76
2022/09/09 05:21:49;;;;;;;32.17;11.80;;;15.10;99.90;;;;;;5041899;28;20060;-78
2022/09/09 05:24:23;;;;;;;47.47;13.57;;;15.10;99.90;;;;;;5059244;28;20040;-78
2022/09/09 05:26:53;;;;;;;31.20;13.00;;;15.00;99.90;;;;;;5025559;28;20067;-76
2022/09/09 05:29:21;;;;;;;44.17;14.18;;;15.10;99.90;;;;;;5059722;28;20447;-78
2022/09/09 05:31:49;;;;;;;39.00;13.20;;;15.10;99.90;;;;;;5026595;28;20072;-78
2022/09/09 05:34:20;;;;;;;37.03;14.00;;;15.70;99.90;;;;;;5058306;28;20049;-76
2022/09/09 05:36:49;;;;;;;43.42;15.10;;;15.10;99.90;;;;;;5059275;28;20056;-78
2022/09/09 05:39:17;;;;;;;47.80;17.20;;;15.10;99.90;;;;;;5042636;28;20040;-76
2022/09/09 05:41:44;;;;;;;44.13;16.02;;;15.00;99.90;;;;;;5058138;28;20067;-77
2022/09/09 05:44:13;;;;;;;53.05;18.30;;;15.10;99.90;;;;;;5059571;28;20486;-78
2022/09/09 05:46:40;;;;;;;52.28;18.35;;;15.10;99.90;;;;;;5038417;28;20404;-79
2022/09/09 05:49:08;;;;;;;36.40;18.05;;;15.10;99.90;;;;;;5039503;28;20041;-79
2022/09/09 05:51:37;;;;;;;54.92;21.05;;;15.10;99.90;;;;;;5038927;28;20045;-77
2022/09/09 05:54:09;;;;;;;55.35;20.52;;;15.10;99.90;;;;;;5053968;28;20049;-78
2022/09/09 05:56:43;;;;;;;44.00;18.65;;;15.10;99.90;;;;;;5022623;28;20045;-78
2022/09/09 05:59:16;;;;;;;45.95;17.83;;;15.00;99.90;;;;;;5039080;28;20045;-78
2022/09/09 06:01:45;;;;;;;47.33;18.13;;;15.20;99.90;;;;;;5038187;28;20053;-78
2022/09/09 06:04:28;;;;;;;50.63;18.60;;;15.20;99.90;;;;;;5007960;28;20060;-77
2022/09/09 06:06:56;;;;;;;42.15;16.33;;;15.10;99.90;;;;;;5020899;28;20055;-79
2022/09/09 06:09:24;;;;;;;42.08;15.82;;;15.10;99.90;;;;;;5038531;28;20052;-78
2022/09/09 06:11:51;;;;;;;48.80;17.00;;;15.20;99.90;;;;;;5038846;28;20041;-77
2022/09/09 06:14:21;;;;;;;40.42;15.95;;;15.10;99.90;;;;;;5036930;28;20044;-77
2022/09/09 06:16:51;;;;;;;46.30;16.23;;;15.10;99.90;;;;;;5038755;28;20053;-78
2022/09/09 06:19:26;;;;;;;46.92;17.42;;;15.20;99.90;;;;;;5038999;28;20045;-77
2022/09/09 06:22:00;;;;;;;39.10;16.55;;;15.20;99.90;;;;;;5020622;28;20048;-79
2022/09/09 06:24:34;;;;;;;43.00;18.42;;;15.20;99.90;;;;;;5055414;28;20359;-78
2022/09/09 06:27:23;;;;;;;37.35;16.75;;;15.20;99.90;;;;;;5021057;28;20041;-77
2022/09/09 06:29:51;;;;;;;55.38;18.83;;;16.70;99.90;;;;;;5038437;28;20049;-77
2022/09/09 06:32:19;;;;;;;50.72;17.23;;;15.30;99.90;;;;;;5054305;28;20048;-77
2022/09/09 06:34:49;;;;;;;43.20;17.42;;;15.30;99.90;;;;;;5037520;28;20045;-77
2022/09/09 06:37:16;;;;;;;44.40;17.23;;;15.30;99.90;;;;;;5038355;28;20052;-77
2022/09/09 06:39:48;;;;;;;41.30;15.70;;;15.30;99.90;;;;;;5036694;28;20052;-78
2022/09/09 06:42:16;;;;;;;41.17;17.50;;;15.40;99.90;;;;;;5036538;28;20041;-78
2022/09/09 06:44:52;;;;;;;39.55;15.52;;;15.40;99.90;;;;;;5054144;28;20045;-78
2022/09/09 06:47:33;;;;;;;44.67;16.10;;;15.30;99.90;;;;;;5056308;28;20048;-78
2022/09/09 06:50:01;;;;;;;37.65;14.98;;;15.40;99.90;;;;;;5057424;28;20056;-78
2022/09/09 06:52:31;;;;;;;37.00;17.70;;;15.30;99.90;;;;;;5057303;28;20059;-79
2022/09/09 06:55:00;;;;;;;36.22;14.30;;;15.50;99.90;;;;;;5056024;28;20051;-79
2022/09/09 06:57:28;;;;;;;32.80;13.40;;;15.50;99.90;;;;;;5074765;28;20458;-79
2022/09/09 07:00:18;;;;;;;31.85;12.07;;;15.50;99.90;;;;;;5056280;28;20048;-79
2022/09/09 07:02:50;;;;;;;23.23;10.95;;;14.90;99.90;;;;;;5057292;28;20485;-79
2022/09/09 07:05:26;;;;;;;27.40;11.35;;;15.60;99.90;;;;;;5057204;28;20066;-79
2022/09/09 07:07:55;;;;;;;28.17;11.50;;;15.60;99.90;;;;;;5055877;28;20045;-79
2022/09/09 07:10:37;;;;;;;28.77;11.07;;;15.70;99.90;;;;;;5055412;28;20056;-78
2022/09/09 07:13:07;;;;;;;28.35;11.02;;;15.70;99.90;;;;;;5057091;28;20371;-78
2022/09/09 07:15:52;;;;;;;24.55;10.25;;;15.60;99.90;;;;;;5056985;28;20036;-79
2022/09/09 07:18:20;;;;;;;;;;;15.60;99.90;;;;;;5024517;28;20061;-78
2022/09/09 07:20:55;;;;;;;34.08;10.98;;;15.60;99.90;;;;;;5056331;28;19920;-78
2022/09/09 07:23:24;;;;;;;20.63;9.68;;;15.70;99.90;;;;;;5057281;28;20045;-77
2022/09/09 07:25:52;;;;;;;17.95;9.75;;;15.70;99.90;;;;;;5057530;28;20459;-78
2022/09/09 07:28:22;;;;;;;21.38;9.32;;;15.80;99.90;;;;;;5039613;28;20044;-79
2022/09/09 07:30:55;;;;;;;21.77;9.40;;;15.90;99.90;;;;;;5057155;28;20045;-78
2022/09/09 07:33:25;;;;;;;21.42;8.63;;;16.00;99.90;;;;;;5056112;28;20036;-78
2022/09/09 07:35:54;;;;;;;21.73;9.35;;;15.90;99.90;;;;;;5057031;28;20049;-79
2022/09/09 07:38:22;;;;;;;20.98;9.10;;;16.00;99.90;;;;;;5056834;28;20064;-78
2022/09/09 07:40:53;;;;;;;28.05;10.25;;;16.00;99.90;;;;;;5056562;28;20055;-78
2022/09/09 07:43:29;;;;;;;23.50;9.32;;;16.00;99.90;;;;;;5074895;28;20041;-77
2022/09/09 07:46:01;;;;;;;19.63;8.82;;;16.10;99.90;;;;;;5040357;28;20455;-80
2022/09/09 07:48:29;;;;;;;20.13;8.35;;;16.10;99.90;;;;;;5039312;28;20474;-77
2022/09/09 07:51:18;;;;;;;21.50;8.73;;;16.10;99.90;;;;;;5057220;28;20048;-79
2022/09/09 07:53:51;;;;;;;17.95;8.75;;;16.20;99.90;;;;;;5056065;28;20084;-78
2022/09/09 07:56:23;;;;;;;19.67;7.95;;;16.20;99.90;;;;;;5057175;28;20048;-76
2022/09/09 07:58:53;;;;;;;20.60;9.48;;;16.10;99.90;;;;;;5057182;28;20044;-77
2022/09/09 08:01:39;;;;;;;21.95;9.40;;;16.20;99.90;;;;;;5038878;28;20476;-76
2022/09/09 08:04:15;;;;;;;21.10;8.25;;;16.30;99.90;;;;;;5036236;28;20059;-75
2022/09/09 08:06:57;;;;;;;19.13;8.07;;;16.30;99.90;;;;;;5035429;28;20041;-77
2022/09/09 08:09:28;;;;;;;23.60;9.35;;;16.00;99.90;;;;;;5054421;28;20048;-77
2022/09/09 08:12:23;;;;;;;26.53;9.40;;;16.30;99.90;;;;;;5052029;28;20353;-77
2022/09/09 08:14:51;;;;;;;25.10;9.35;;;16.30;99.90;;;;;;5020158;28;20060;-78
2022/09/09 08:17:22;;;;;;;23.48;10.00;;;16.30;99.90;;;;;;5036832;28;20037;-76
2022/09/09 08:19:55;;;;;;;18.13;8.65;;;16.40;99.90;;;;;;5037348;28;20045;-76
2022/09/09 08:22:26;;;;;;;17.20;8.45;;;16.50;99.90;;;;;;5020143;28;20437;-77
2022/09/09 08:24:56;;;;;;;18.63;9.25;;;16.60;99.90;;;;;;5037065;28;20479;-77
2022/09/09 08:27:25;;;;;;;;;;;16.60;99.90;;;;;;5019400;28;20044;-76
2022/09/09 08:29:53;;;;;;;18.65;8.00;;;16.80;99.90;;;;;;5036765;28;19921;-75
2022/09/09 08:32:21;;;;;;;15.23;7.03;;;16.80;99.90;;;;;;5036784;28;20041;-77
2022/09/09 08:34:51;;;;;;;16.42;7.28;;;16.90;99.90;;;;;;5035747;28;20120;-75
2022/09/09 08:37:23;;;;;;;16.52;7.20;;;17.00;99.90;;;;;;5039665;28;20063;-76
2022/09/09 08:39:51;;;;;;;17.35;7.45;;;17.10;99.90;;;;;;5040331;28;20356;-78
2022/09/09 08:42:33;;;;;;;20.73;7.45;;;17.20;99.90;;;;;;5039215;28;20053;-77
2022/09/09 08:45:26;;;;;;;18.60;7.50;;;17.30;99.90;;;;;;5057638;28;20049;-76
2022/09/09 08:48:43;;;;;;;14.95;6.30;;;15.80;99.90;;;;;;5038333;28;20495;-76
2022/09/09 08:51:13;;;;;;;13.68;6.50;;;17.40;99.90;;;;;;5040183;28;20048;-78
2022/09/09 08:53:46;;;;;;;13.02;6.30;;;17.50;99.90;;;;;;5055583;28;20299;-77
2022/09/09 08:56:21;;;;;;;15.65;6.15;;;17.50;99.90;;;;;;5056669;28;20064;-77
2022/09/09 08:58:54;;;;;;;12.88;6.47;;;17.60;99.90;;;;;;5040132;28;20049;-78
2022/09/09 09:01:37;;;;;;;15.35;6.57;;;16.40;99.90;;;;;;5055488;28;20056;-76
2022/09/09 09:04:13;;;;;;;14.10;6.38;;;17.80;99.90;;;;;;5057009;28;20049;-76
2022/09/09 09:07:04;;;;;;;13.45;6.03;;;17.80;99.90;;;;;;5039670;28;20041;-77
2022/09/09 09:09:36;;;;;;;15.35;6.22;;;17.80;99.90;;;;;;5056505;28;20136;-76
2022/09/09 09:12:20;;;;;;;16.55;6.13;;;17.60;99.90;;;;;;5056171;28;20049;-76
2022/09/09 09:14:49;;;;;;;15.20;6.20;;;17.50;99.90;;;;;;5055947;28;20045;-77
2022/09/09 09:17:26;;;;;;;17.83;6.85;;;17.60;99.90;;;;;;5056157;28;20353;-76
2022/09/09 09:19:53;;;;;;;11.93;7.10;;;17.50;99.90;;;;;;5057107;28;20052;-76
2022/09/09 09:22:34;;;;;;;12.35;6.15;;;17.40;99.90;;;;;;5038408;28;20379;-77
2022/09/09 09:25:20;;;;;;;16.75;7.32;;;17.20;99.90;;;;;;5056178;28;20041;-77
2022/09/09 09:28:05;;;;;;;12.88;7.22;;;17.10;99.90;;;;;;5055187;28;20033;-78
2022/09/09 09:30:49;;;;;;;13.73;7.82;;;16.90;99.90;;;;;;5055923;28;20041;-77
2022/09/09 09:33:30;;;;;;;11.70;7.20;;;17.10;99.90;;;;;;5039708;28;20048;-78
2022/09/09 09:36:02;;;;;;;12.68;7.53;;;17.10;99.90;;;;;;5039908;28;20056;-76
2022/09/09 09:38:30;;;;;;;14.05;7.80;;;17.20;99.90;;;;;;5055918;28;20052;-77
2022/09/09 09:41:49;;;;;;;13.07;7.45;;;17.10;99.90;;;;;;5054434;28;20041;-77
2022/09/09 09:44:30;;;;;;;19.77;8.43;;;17.30;99.90;;;;;;5055619;28;20055;-76
2022/09/09 09:47:14;;;;;;;15.05;9.02;;;16.50;99.90;;;;;;5054603;28;20045;-76
2022/09/09 09:49:58;;;;;;;15.52;9.05;;;17.50;99.90;;;;;;5055878;28;20037;-76
2022/09/09 09:52:34;;;;;;;15.50;8.98;;;17.60;99.90;;;;;;5055921;28;20041;-76
2022/09/09 09:55:04;;;;;;;16.85;9.70;;;17.80;99.90;;;;;;5054518;28;20056;-76
2022/09/09 09:57:36;;;;;;;16.08;9.93;;;17.90;99.90;;;;;;5055361;28;20513;-76
2022/09/09 10:00:19;;;;;;;17.52;11.50;;;18.10;99.90;;;;;;5055733;28;20049;-79
2022/09/09 10:03:24;;;;;;;20.92;11.20;;;18.20;99.90;;;;;;5055573;28;20045;-74
2022/09/09 10:05:54;;;;;;;16.45;11.48;;;18.30;99.90;;;;;;5055064;28;20056;-76
2022/09/09 10:08:24;;;;;;;21.42;12.00;;;18.30;99.90;;;;;;5055045;28;20372;-77
2022/09/09 10:11:17;;;;;;;19.10;11.77;;;18.40;99.90;;;;;;5055360;28;20041;-75
2022/09/09 10:13:54;;;;;;;21.15;12.73;;;18.50;99.90;;;;;;5037604;28;20060;-76
2022/09/09 10:17:00;;;;;;;20.52;12.10;;;18.40;99.90;;;;;;5055289;28;20056;-75
2022/09/09 10:19:36;;;;;;;19.52;11.57;;;18.40;99.90;;;;;;5053293;28;20328;-76
2022/09/09 10:22:33;;;;;;;23.98;11.85;;;18.40;99.90;;;;;;5054684;28;20052;-78
2022/09/09 10:25:38;;;;;;;23.77;13.63;;;18.30;99.90;;;;;;5038061;28;20060;-74
2022/09/09 10:28:23;;;;;;;23.08;13.63;;;18.50;99.90;;;;;;5053706;28;20044;-74
2022/09/09 10:31:10;;;;;;;24.05;13.35;;;18.50;99.90;;;;;;5054051;28;20063;-75
2022/09/09 10:34:01;;;;;;;21.08;13.02;;;18.50;99.90;;;;;;5053419;28;20052;-76
2022/09/09 10:36:29;;;;;;;25.33;13.23;;;18.70;99.90;;;;;;5053763;28;20052;-77
2022/09/09 10:39:13;;;;;;;;;;;18.80;99.90;;;;;;5055367;28;20041;-74
2022/09/09 10:42:08;;;;;;;25.15;13.80;;;18.90;99.90;;;;;;5036423;28;19921;-75
2022/09/09 10:44:59;;;;;;;24.67;12.85;;;18.90;99.90;;;;;;5055216;28;20065;-78
2022/09/09 10:48:04;;;;;;;21.73;12.80;;;18.90;99.90;;;;;;5069467;28;20053;-77
2022/09/09 10:50:49;;;;;;;23.60;12.52;;;18.80;99.90;;;;;;5067318;28;20063;-79
2022/09/09 10:53:57;;;;;;;24.95;12.15;;;18.70;99.90;;;;;;5050879;28;20055;-79
2022/09/09 10:56:28;;;;;;;24.13;11.48;;;17.00;99.90;;;;;;5037412;28;20057;-77
2022/09/09 10:59:17;;;;;;;20.00;11.73;;;18.70;99.90;;;;;;5037482;28;20048;-78
2022/09/09 11:02:28;;;;;;;21.10;11.50;;;18.80;99.90;;;;;;5041687;28;20051;-77
2022/09/09 11:05:20;;;;;;;19.83;11.23;;;18.80;99.90;;;;;;5041117;28;20045;-81
2022/09/09 11:17:58;;;;;;;;;;;18.90;99.90;;;;;;4893505;29;20055;-76
2022/09/09 11:20:26;;;;;;;20.15;11.80;;;18.80;99.90;;;;;;4934344;29;19929;-78
2022/09/09 11:23:12;;;;;;;20.15;12.40;;;18.60;99.90;;;;;;5004911;28;20444;-75
2022/09/09 11:25:45;;;;;;;18.30;11.00;;;18.60;99.90;;;;;;5036713;28;20072;-76
2022/09/09 11:28:28;;;;;;;17.17;10.50;;;18.60;99.90;;;;;;5053326;28;20463;-77
2022/09/09 11:31:28;;;;;;;20.05;10.18;;;18.70;99.90;;;;;;5020482;28;20052;-80
2022/09/09 11:34:41;;;;;;;20.58;11.05;;;18.80;99.90;;;;;;5053565;28;20063;-80
2022/09/09 11:37:59;;;;;;;13.07;6.15;;;18.90;99.90;;;;;;4984570;28;20385;-81
2022/09/09 11:40:34;;;;;;;9.07;5.18;;;18.80;99.90;;;;;;4999262;28;20043;-79
2022/09/09 11:44:27;;;;;;;8.63;5.07;;;18.70;99.90;;;;;;5044466;28;20040;-76
2022/09/09 11:47:02;;;;;;;12.55;4.25;;;18.50;99.90;;;;;;5056503;28;20068;-76
2022/09/09 11:49:43;;;;;;;9.48;4.32;;;18.20;99.90;;;;;;5056686;28;20052;-76
2022/09/09 11:52:20;;;;;;;10.40;4.60;;;18.10;99.90;;;;;;5056595;28;20056;-76
2022/09/09 11:54:50;;;;;;;11.50;5.35;;;18.10;99.90;;;;;;5055795;28;20364;-76
2022/09/09 11:57:24;;;;;;;12.30;5.00;;;18.10;99.90;;;;;;5056681;28;20052;-76
2022/09/09 11:59:52;;;;;;;9.57;5.32;;;18.10;99.90;;;;;;5073988;28;20036;-77
2022/09/09 12:02:30;;;;;;;7.82;4.88;;;18.20;99.90;;;;;;5055594;28;20055;-77
2022/09/09 12:05:11;;;;;;;14.25;5.38;;;18.30;99.90;;;;;;5073877;28;20053;-77
2022/09/09 12:07:49;;;;;;;9.77;4.80;;;18.30;99.90;;;;;;5022680;28;20048;-77
2022/09/09 12:10:35;;;;;;;7.57;4.60;;;16.90;99.90;;;;;;5056357;28;20064;-78
2022/09/09 12:13:16;;;;;;;9.98;4.85;;;18.70;99.90;;;;;;5029553;28;20115;-77
2022/09/09 12:15:53;;;;;;;7.80;3.92;;;17.70;99.90;;;;;;5058878;28;20064;-77
2022/09/09 12:18:39;;;;;;;10.70;3.95;;;19.00;99.90;;;;;;5044529;28;20359;-77
2022/09/09 12:21:28;;;;;;;8.40;3.53;;;19.20;99.90;;;;;;5076952;28;20044;-77
2022/09/09 12:24:17;;;;;;;12.18;4.05;;;19.20;99.90;;;;;;5028799;28;20475;-78
2022/09/09 12:27:14;;;;;;;11.00;3.53;;;19.00;99.90;;;;;;5041951;28;20474;-77
2022/09/09 12:29:45;;;;;;;9.43;3.70;;;18.80;99.90;;;;;;5077562;28;20049;-76
2022/09/09 12:32:30;;;;;;;10.40;3.55;;;18.60;99.90;;;;;;5077633;28;20051;-77
2022/09/09 12:35:38;;;;;;;9.55;4.00;;;17.40;99.90;;;;;;5076287;28;20044;-78
2022/09/09 12:38:11;;;;;;;6.80;3.63;;;18.70;99.90;;;;;;4976841;28;20054;-77
2022/09/09 12:45:08;;;;;;;6.95;3.75;;;19.10;99.90;;;;;;5059408;28;20402;-79
2022/09/09 12:47:18;;;;;;;9.93;3.88;;;18.50;99.90;;;;;;5065463;28;20048;-77
2022/09/09 12:50:16;;;;;;;9.02;3.65;;;19.90;99.90;;;;;;5060348;28;20379;-79
2022/09/09 12:56:49;;;;;;;8.83;3.63;;;20.50;99.90;;;;;;5000293;28;20066;-78
2022/09/09 13:04:29;;;;;;;;;;;;;;;;;;;;;
2022/09/09 13:07:15;;;;;;;10.20;3.70;;;20.80;99.90;;;;;;4939864;29;20048;-78
2022/09/09 13:09:54;;;;;;;8.73;3.30;;;20.40;99.90;;;;;;4941231;29;20406;-78
2022/09/09 13:12:48;;;;;;;10.65;3.60;;;20.20;99.90;;;;;;4957008;29;20070;-78
2022/09/09 13:15:30;;;;;;;8.63;3.95;;;20.00;99.90;;;;;;5011179;28;20377;-77
2022/09/09 13:18:12;;;;;;;10.63;3.58;;;19.90;99.90;;;;;;5015216;28;20053;-78
2022/09/09 13:20:51;;;;;;;8.50;3.60;;;19.90;99.90;;;;;;5024686;28;20376;-78
2022/09/09 13:27:49;;;;;;;6.35;3.28;;;20.10;99.90;;;;;;5051253;28;20048;-77
2022/09/09 13:30:35;;;;;;;6.00;3.47;;;20.20;99.90;;;;;;5042138;28;20463;-77
2022/09/09 13:33:28;;;;;;;7.00;3.17;;;20.20;99.90;;;;;;5042362;28;20051;-77
2022/09/09 13:36:14;;;;;;;7.07;3.17;;;21.30;99.90;;;;;;5041866;28;20043;-77
2022/09/09 13:39:03;;;;;;;6.85;3.67;;;20.30;99.90;;;;;;5059326;28;20371;-77
2022/09/09 13:41:45;;;;;;;6.95;3.47;;;20.60;99.90;;;;;;5058229;28;20378;-77
2022/09/09 13:44:30;;;;;;;9.30;3.45;;;20.10;99.90;;;;;;5058679;28;20044;-78
2022/09/09 13:51:46;;;;;;;10.02;3.50;;;20.10;99.90;;;;;;5035665;28;20056;-77
2022/09/09 13:54:25;;;;;;;7.85;3.35;;;19.90;99.90;;;;;;5057724;28;20052;-78
2022/09/09 13:57:56;;;;;;;8.07;3.55;;;20.00;99.90;;;;;;5059893;28;20053;-78
2022/09/09 14:01:05;;;;;;;8.48;3.92;;;20.20;99.90;;;;;;5045380;28;20071;-78
2022/09/09 14:08:00;;;;;;;8.38;4.28;;;19.30;99.90;;;;;;5043589;28;20056;-78
2022/09/09 14:15:01;;;;;;;8.73;3.72;;;20.60;99.90;;;;;;5045540;28;20055;-79